Time;durP1;ratioP1;P1;durP2;ratioP2;P2;SDS_P1;SDS_P2;PMS_P1;PMS_P2;Temp;Humidity;BMP_temperature;BMP_pressure;BME280_temperature;BME280_humidity;BME280_pressure;Samples;Min_cycle;Max_cycle;Signal;HPM_P1;HPM_P2
2022/07/06 00:02:05;;;;;;;5.25;1.45;;;20.50;74.10;;;;;;6859158;28;20472;-77
2022/07/06 00:05:27;;;;;;;4.43;1.50;;;20.30;74.20;;;;;;6861122;28;20842;-79
2022/07/06 00:08:49;;;;;;;3.47;1.45;;;20.30;74.70;;;;;;6861053;28;20460;-78
2022/07/06 00:12:11;;;;;;;4.43;1.50;;;20.40;75.90;;;;;;6860895;28;20439;-78
2022/07/06 00:15:33;;;;;;;3.67;1.50;;;20.40;75.20;;;;;;6850413;28;20540;-78
2022/07/06 00:18:57;;;;;;;3.58;1.42;;;20.30;75.70;;;;;;6862131;28;20460;-80
2022/07/06 00:22:19;;;;;;;4.85;1.50;;;20.40;76.20;;;;;;6862821;28;20436;-77
2022/07/06 00:25:41;;;;;;;4.10;1.40;;;20.30;74.80;;;;;;6860362;28;20475;-78
2022/07/06 00:29:03;;;;;;;5.40;1.60;;;20.30;75.60;;;;;;6862326;28;20440;-81
2022/07/06 00:32:27;;;;;;;3.43;1.50;;;20.20;75.50;;;;;;6861614;28;20513;-76
2022/07/06 00:35:50;;;;;;;4.50;1.50;;;20.20;74.50;;;;;;6847497;28;20506;-77
2022/07/06 00:39:13;;;;;;;3.63;1.40;;;20.10;76.30;;;;;;6861780;28;20498;-76
2022/07/06 00:42:41;;;;;;;4.00;1.50;;;20.20;75.90;;;;;;6860597;28;20442;-76
2022/07/06 00:46:03;;;;;;;3.58;1.30;;;20.20;76.20;;;;;;6860803;28;20956;-76
2022/07/06 00:53:05;;;;;;;5.70;1.50;;;20.20;77.60;;;;;;6834419;28;20432;-77
2022/07/06 00:56:32;;;;;;;4.00;1.58;;;20.20;77.60;;;;;;6859107;28;20451;-78
2022/07/06 00:59:54;;;;;;;4.30;1.60;;;20.10;78.60;;;;;;6860576;28;20789;-77
2022/07/06 01:03:16;;;;;;;4.32;1.60;;;20.00;78.60;;;;;;6857385;28;20471;-78
2022/07/06 01:06:39;;;;;;;3.97;1.50;;;19.90;77.60;;;;;;6860159;28;20443;-79
2022/07/06 01:10:03;;;;;;;4.05;1.63;;;19.90;77.10;;;;;;6857585;28;20506;-78
2022/07/06 01:13:27;;;;;;;3.50;1.60;;;19.90;78.20;;;;;;6858662;28;20466;-79
2022/07/06 01:16:49;;;;;;;4.82;1.50;;;19.90;77.90;;;;;;6859016;28;20887;-78
2022/07/06 01:20:15;;;;;;;7.63;2.00;;;19.90;77.90;;;;;;6860068;28;20440;-78
2022/07/06 01:23:42;;;;;;;5.00;1.67;;;19.90;79.00;;;;;;6859389;28;20454;-77
2022/07/06 01:27:05;;;;;;;4.57;1.65;;;19.90;78.90;;;;;;6862879;28;20435;-77
2022/07/06 01:30:27;;;;;;;4.00;1.60;;;19.80;79.40;;;;;;6886333;28;20562;-78
2022/07/06 01:33:51;;;;;;;3.83;1.52;;;19.60;80.70;;;;;;6870886;28;20478;-78
2022/07/06 01:37:14;;;;;;;5.00;1.70;;;19.40;79.30;;;;;;6859592;28;20500;-77
2022/07/06 01:40:36;;;;;;;4.13;1.60;;;19.50;79.90;;;;;;6857930;28;20436;-80
2022/07/06 01:43:58;;;;;;;4.20;1.70;;;19.50;78.90;;;;;;6858654;28;20436;-78
2022/07/06 01:47:20;;;;;;;3.35;1.60;;;19.40;78.80;;;;;;6858522;28;20474;-76
2022/07/06 01:50:42;;;;;;;3.72;1.50;;;19.40;79.30;;;;;;6859937;28;20436;-78
2022/07/06 01:54:06;;;;;;;4.53;1.52;;;19.40;79.90;;;;;;6856964;28;20440;-77
2022/07/06 01:57:28;;;;;;;3.95;1.70;;;19.30;80.40;;;;;;6858719;28;20448;-76
2022/07/06 02:00:50;;;;;;;4.57;1.63;;;19.20;81.10;;;;;;6859397;28;20432;-78
2022/07/06 02:04:12;;;;;;;4.70;1.75;;;19.20;82.00;;;;;;6858623;28;20446;-77
2022/07/06 02:07:34;;;;;;;3.53;1.50;;;19.10;80.80;;;;;;6858525;28;20470;-76
2022/07/06 02:10:57;;;;;;;5.05;1.65;;;19.20;80.90;;;;;;6859223;28;20482;-79
2022/07/06 02:14:19;;;;;;;3.58;1.50;;;19.20;80.80;;;;;;6866669;28;20478;-75
2022/07/06 02:17:41;;;;;;;4.60;1.60;;;19.20;80.90;;;;;;6870928;28;20448;-77
2022/07/06 02:21:06;;;;;;;4.88;1.88;;;19.20;80.70;;;;;;6870070;28;20455;-78
2022/07/06 02:24:28;;;;;;;6.20;1.85;;;19.20;81.60;;;;;;6862936;28;20839;-78
2022/07/06 02:27:51;;;;;;;4.93;1.88;;;18.90;82.00;;;;;;6864058;28;20477;-77
2022/07/06 02:31:13;;;;;;;3.83;1.80;;;18.70;83.40;;;;;;6853509;28;20476;-75
2022/07/06 02:34:35;;;;;;;5.32;1.77;;;18.70;84.80;;;;;;6854443;28;20558;-78
2022/07/06 02:37:57;;;;;;;5.07;1.80;;;18.70;83.80;;;;;;6888685;28;20460;-77
2022/07/06 02:41:19;;;;;;;5.10;1.77;;;18.70;85.20;;;;;;6880317;28;20432;-77
2022/07/06 02:44:43;;;;;;;4.30;1.80;;;18.70;86.00;;;;;;6862977;28;20435;-79
2022/07/06 02:48:05;;;;;;;3.47;1.80;;;18.60;85.80;;;;;;6862504;28;20443;-78
2022/07/06 02:51:27;;;;;;;3.95;1.80;;;18.70;86.30;;;;;;6863518;28;20443;-80
2022/07/06 02:54:50;;;;;;;4.47;1.77;;;18.60;86.40;;;;;;6861819;28;20473;-78
2022/07/06 02:58:12;;;;;;;5.07;1.90;;;18.60;86.90;;;;;;6861199;28;20467;-78
2022/07/06 03:01:35;;;;;;;4.00;1.88;;;18.60;86.90;;;;;;6863505;28;20465;-78
2022/07/06 03:04:58;;;;;;;3.53;1.80;;;18.60;86.80;;;;;;6861439;28;20444;-75
2022/07/06 03:08:20;;;;;;;5.28;1.75;;;18.50;87.60;;;;;;6862373;28;20443;-78
2022/07/06 03:11:43;;;;;;;4.13;1.73;;;18.40;87.70;;;;;;6862086;28;20565;-79
2022/07/06 03:15:06;;;;;;;3.33;1.60;;;18.50;88.50;;;;;;6863379;28;20432;-78
2022/07/06 03:18:29;;;;;;;4.28;1.80;;;18.50;88.70;;;;;;6862009;28;20455;-79
2022/07/06 03:21:52;;;;;;;5.63;2.10;;;18.50;88.50;;;;;;6865601;28;20446;-79
2022/07/06 03:25:14;;;;;;;3.88;1.98;;;18.60;88.50;;;;;;6862544;28;20455;-77
2022/07/06 03:28:36;;;;;;;5.28;1.73;;;18.60;87.40;;;;;;6862351;28;20436;-79
2022/07/06 03:31:58;;;;;;;3.80;1.80;;;18.60;88.00;;;;;;6860707;28;20945;-79
2022/07/06 03:35:22;;;;;;;5.13;2.05;;;18.60;88.10;;;;;;6860872;28;20519;-79
2022/07/06 03:38:44;;;;;;;4.32;1.90;;;18.60;88.60;;;;;;6862193;28;20440;-79
2022/07/06 03:42:06;;;;;;;4.17;1.97;;;18.50;88.30;;;;;;6860606;28;20474;-77
2022/07/06 03:45:28;;;;;;;5.03;2.05;;;18.40;88.60;;;;;;6862169;28;20443;-77
2022/07/06 03:48:50;;;;;;;4.20;2.30;;;18.40;88.20;;;;;;6862329;28;20914;-79
2022/07/06 03:52:14;;;;;;;3.95;1.80;;;18.50;88.40;;;;;;6859776;28;20476;-80
2022/07/06 03:55:36;;;;;;;3.83;1.85;;;18.50;88.50;;;;;;6861799;28;20479;-81
2022/07/06 03:59:00;;;;;;;4.93;1.90;;;18.60;88.10;;;;;;6859334;28;20492;-79
2022/07/06 04:02:22;;;;;;;4.55;1.90;;;18.60;87.80;;;;;;6861855;28;20439;-80
2022/07/06 04:05:44;;;;;;;5.18;2.00;;;18.60;87.60;;;;;;6860848;28;20440;-78
2022/07/06 04:09:07;;;;;;;4.00;2.00;;;18.50;88.20;;;;;;6861209;28;20436;-80
2022/07/06 04:12:29;;;;;;;4.27;1.70;;;18.50;89.50;;;;;;6862324;28;20436;-80
2022/07/06 04:15:51;;;;;;;3.55;1.73;;;18.50;90.00;;;;;;6859809;28;20523;-76
2022/07/06 04:19:14;;;;;;;5.00;2.22;;;18.50;90.00;;;;;;6888453;28;20438;-76
2022/07/06 04:22:39;;;;;;;4.20;1.90;;;18.30;90.10;;;;;;6888705;28;20437;-79
2022/07/06 04:26:02;;;;;;;4.75;2.00;;;18.10;90.20;;;;;;6888151;28;21145;-78
2022/07/06 04:29:24;;;;;;;5.38;2.08;;;17.90;90.50;;;;;;6882683;28;20443;-77
2022/07/06 04:32:46;;;;;;;4.35;1.90;;;17.90;90.80;;;;;;6888102;28;20505;-77
2022/07/06 04:36:08;;;;;;;4.63;1.83;;;18.10;90.70;;;;;;6869661;28;20469;-79
2022/07/06 04:39:31;;;;;;;4.67;2.13;;;18.10;90.40;;;;;;6887756;28;20430;-78
2022/07/06 04:42:55;;;;;;;5.75;2.10;;;18.10;89.90;;;;;;6884468;28;20430;-77
2022/07/06 04:46:17;;;;;;;6.28;2.10;;;18.10;90.30;;;;;;6887425;28;20462;-76
2022/07/06 04:49:39;;;;;;;4.00;1.90;;;18.20;90.80;;;;;;6867645;28;20547;-79
2022/07/06 04:53:01;;;;;;;4.10;2.00;;;18.30;91.20;;;;;;6887391;28;20430;-80
2022/07/06 04:56:23;;;;;;;6.70;2.20;;;18.40;91.10;;;;;;6887358;28;20936;-79
2022/07/06 04:59:46;;;;;;;5.75;2.05;;;18.40;90.90;;;;;;6880432;28;20451;-77
2022/07/06 05:03:09;;;;;;;5.15;2.13;;;18.30;90.90;;;;;;6846895;28;20436;-77
2022/07/06 05:06:31;;;;;;;5.63;2.27;;;18.30;91.00;;;;;;6860260;28;21022;-79
2022/07/06 05:09:53;;;;;;;5.28;2.10;;;18.30;90.60;;;;;;6859977;28;20467;-77
2022/07/06 05:13:15;;;;;;;4.30;1.90;;;18.40;90.70;;;;;;6860294;28;20877;-79
2022/07/06 05:16:39;;;;;;;5.85;2.30;;;18.40;90.60;;;;;;6860144;28;20436;-79
2022/07/06 05:20:01;;;;;;;4.53;2.10;;;18.40;90.20;;;;;;6859650;28;20914;-78
2022/07/06 05:23:23;;;;;;;4.75;2.20;;;18.30;90.70;;;;;;6863471;28;20910;-78
2022/07/06 05:26:45;;;;;;;4.82;2.20;;;18.40;90.40;;;;;;6863571;28;20443;-79
2022/07/06 05:30:09;;;;;;;6.00;2.20;;;18.40;90.60;;;;;;6859429;28;20432;-80
2022/07/06 05:33:33;;;;;;;6.22;2.50;;;18.40;90.60;;;;;;6859773;28;20448;-79
2022/07/06 05:36:55;;;;;;;5.78;2.28;;;18.40;90.50;;;;;;6859867;28;20444;-79
2022/07/06 05:40:17;;;;;;;5.60;2.13;;;18.60;91.00;;;;;;6859371;28;20502;-80
2022/07/06 05:43:39;;;;;;;5.33;2.20;;;18.50;90.30;;;;;;6866980;28;20484;-79
2022/07/06 05:50:38;;;;;;;5.57;2.20;;;18.50;90.50;;;;;;6879362;28;20945;-79
2022/07/06 05:54:00;;;;;;;7.65;2.50;;;18.60;90.60;;;;;;6867804;28;20492;-77
2022/07/06 05:57:22;;;;;;;5.13;2.42;;;18.50;89.70;;;;;;6867943;28;20448;-79
2022/07/06 06:00:45;;;;;;;7.13;2.40;;;18.40;89.30;;;;;;6895138;28;20430;-80
2022/07/06 06:04:07;;;;;;;5.50;2.60;;;18.40;89.10;;;;;;6895004;28;20430;-78
2022/07/06 06:07:30;;;;;;;5.57;2.63;;;18.40;88.90;;;;;;6884091;28;20755;-80
2022/07/06 06:10:52;;;;;;;5.78;2.50;;;18.50;89.20;;;;;;6867167;28;20519;-77
2022/07/06 06:14:14;;;;;;;6.77;2.70;;;18.50;89.40;;;;;;6867285;28;20476;-81
2022/07/06 06:17:38;;;;;;;4.85;2.50;;;18.60;89.20;;;;;;6868075;28;20470;-79
2022/07/06 06:21:00;;;;;;;6.50;2.70;;;18.60;88.40;;;;;;6895119;28;20437;-79
2022/07/06 06:24:24;;;;;;;7.68;2.78;;;18.70;88.40;;;;;;6895044;28;20442;-80
2022/07/06 06:27:46;;;;;;;7.43;2.70;;;18.70;88.30;;;;;;6879668;28;20522;-81
2022/07/06 06:31:09;;;;;;;4.82;2.78;;;18.70;88.50;;;;;;6867942;28;20512;-78
2022/07/06 06:34:31;;;;;;;6.27;2.67;;;18.80;88.90;;;;;;6893213;28;20892;-78
2022/07/06 06:37:53;;;;;;;6.32;2.67;;;18.70;90.00;;;;;;6841146;28;20484;-78
2022/07/06 06:41:16;;;;;;;6.18;2.92;;;18.90;89.70;;;;;;6859040;28;20996;-76
2022/07/06 06:44:38;;;;;;;6.97;2.88;;;19.10;90.10;;;;;;6866300;28;20446;-78
2022/07/06 06:48:00;;;;;;;7.10;3.38;;;18.90;89.30;;;;;;6894347;28;20476;-78
2022/07/06 06:51:22;;;;;;;6.28;3.05;;;18.60;89.30;;;;;;6894654;28;20497;-79
2022/07/06 06:54:44;;;;;;;5.70;2.70;;;18.70;89.70;;;;;;6894700;28;20438;-78
2022/07/06 06:58:07;;;;;;;8.10;3.00;;;18.90;90.20;;;;;;6894279;28;20485;-79
2022/07/06 07:01:30;;;;;;;4.97;2.58;;;19.30;89.10;;;;;;6860239;28;20446;-80
2022/07/06 07:04:52;;;;;;;8.48;2.90;;;19.10;89.10;;;;;;6862378;28;20447;-75
2022/07/06 07:08:14;;;;;;;6.63;2.70;;;19.30;89.40;;;;;;6890134;28;20960;-77
2022/07/06 07:11:37;;;;;;;6.13;2.88;;;19.40;88.50;;;;;;6869326;28;20491;-78
2022/07/06 07:15:00;;;;;;;5.95;2.50;;;19.40;88.10;;;;;;6864099;28;20818;-78
2022/07/06 07:18:22;;;;;;;8.18;2.95;;;19.60;89.00;;;;;;6881173;28;20926;-79
2022/07/06 07:21:44;;;;;;;6.50;2.88;;;19.70;87.80;;;;;;6863090;28;20485;-80
2022/07/06 07:25:08;;;;;;;6.75;2.75;;;19.70;87.50;;;;;;6863318;28;20788;-79
2022/07/06 07:28:30;;;;;;;5.82;2.60;;;19.80;87.70;;;;;;6862424;28;20442;-80
2022/07/06 07:31:53;;;;;;;8.23;2.90;;;19.80;87.20;;;;;;6862517;28;20507;-79
2022/07/06 07:35:15;;;;;;;6.20;2.72;;;19.90;86.00;;;;;;6862978;28;20927;-80
2022/07/06 07:38:37;;;;;;;5.82;2.60;;;20.10;87.40;;;;;;6863837;28;20443;-80
2022/07/06 07:41:59;;;;;;;5.60;2.50;;;20.30;87.20;;;;;;6871379;28;20440;-79
2022/07/06 07:45:21;;;;;;;5.87;2.50;;;20.20;86.20;;;;;;6866805;28;21022;-81
2022/07/06 07:48:45;;;;;;;5.90;2.90;;;20.30;85.50;;;;;;6862516;28;20952;-79
2022/07/06 07:52:07;;;;;;;6.15;2.65;;;20.40;83.60;;;;;;6862053;28;20941;-79
2022/07/06 07:55:29;;;;;;;4.73;2.60;;;20.50;83.60;;;;;;6861268;28;20458;-81
2022/07/06 07:58:51;;;;;;;6.63;3.17;;;20.50;83.40;;;;;;6860984;28;20505;-80
2022/07/06 08:02:13;;;;;;;6.25;3.00;;;20.60;83.20;;;;;;6860255;28;20951;-80
2022/07/06 08:05:37;;;;;;;7.30;2.78;;;20.60;83.90;;;;;;6877152;28;20434;-80
2022/07/06 08:08:59;;;;;;;6.10;2.53;;;20.70;84.30;;;;;;6878263;28;20449;-82
2022/07/06 08:12:21;;;;;;;6.65;2.70;;;20.80;83.10;;;;;;6861845;28;20432;-77
2022/07/06 08:15:44;;;;;;;6.45;2.47;;;20.90;83.50;;;;;;6861417;28;20537;-80
2022/07/06 08:19:06;;;;;;;6.57;2.87;;;20.90;82.30;;;;;;6861898;28;20438;-80
2022/07/06 08:22:30;;;;;;;4.72;2.60;;;20.90;82.10;;;;;;6881997;28;20430;-80
2022/07/06 08:25:52;;;;;;;5.22;2.40;;;21.00;82.30;;;;;;6887886;28;20437;-80
2022/07/06 08:29:14;;;;;;;6.90;2.63;;;21.10;81.80;;;;;;6888182;28;20472;-79
2022/07/06 08:32:39;;;;;;;5.32;2.63;;;21.10;82.60;;;;;;6887802;28;20434;-80
2022/07/06 08:36:01;;;;;;;6.57;2.90;;;21.20;80.80;;;;;;6872424;28;20444;-80
2022/07/06 08:39:24;;;;;;;7.22;3.20;;;21.20;79.60;;;;;;6885597;28;20442;-79
2022/07/06 08:42:53;;;;;;;6.90;2.90;;;21.10;80.00;;;;;;6868535;28;20887;-80
2022/07/06 08:46:16;;;;;;;6.28;2.70;;;21.10;79.80;;;;;;6860609;28;20961;-79
2022/07/06 08:49:38;;;;;;;5.70;2.50;;;21.20;80.20;;;;;;6843347;28;20455;-80
2022/07/06 08:53:00;;;;;;;6.07;2.70;;;21.20;79.20;;;;;;6860538;28;20834;-79
2022/07/06 08:56:24;;;;;;;6.97;2.83;;;21.20;77.90;;;;;;6858769;28;20443;-80
2022/07/06 08:59:46;;;;;;;5.70;2.47;;;21.30;78.50;;;;;;6859371;28;20491;-79
2022/07/06 09:03:13;;;;;;;5.70;2.50;;;21.40;77.50;;;;;;6859827;28;20479;-79
2022/07/06 09:06:35;;;;;;;6.40;2.70;;;21.50;78.20;;;;;;6886770;28;20483;-79
2022/07/06 09:10:00;;;;;;;6.95;2.90;;;21.50;79.00;;;;;;6869229;28;20572;-80
2022/07/06 09:13:24;;;;;;;7.95;3.10;;;21.60;77.60;;;;;;6881961;28;20918;-78
2022/07/06 09:16:47;;;;;;;5.37;2.67;;;21.60;77.50;;;;;;6859513;28;20443;-79
2022/07/06 09:20:12;;;;;;;6.72;2.40;;;21.70;77.30;;;;;;6859226;28;20487;-80
2022/07/06 09:23:34;;;;;;;6.95;2.67;;;21.80;78.70;;;;;;6857730;28;20447;-79
2022/07/06 09:26:57;;;;;;;5.85;2.50;;;21.80;79.00;;;;;;6859364;28;20432;-79
2022/07/06 09:30:23;;;;;;;5.87;2.87;;;21.90;78.40;;;;;;6858932;28;20530;-80
2022/07/06 09:34:01;;;;;;;6.32;3.22;;;21.90;78.20;;;;;;6859058;28;20439;-77
2022/07/06 09:37:24;;;;;;;5.95;3.10;;;21.80;77.80;;;;;;6859052;28;20436;-79
2022/07/06 09:40:48;;;;;;;7.10;2.90;;;21.70;77.70;;;;;;6857696;28;20447;-80
2022/07/06 09:44:11;;;;;;;6.47;2.58;;;21.90;78.00;;;;;;6879367;28;20437;-80
2022/07/06 09:47:37;;;;;;;7.47;2.60;;;21.90;77.30;;;;;;6870409;28;20447;-79
2022/07/06 09:51:02;;;;;;;5.32;2.47;;;22.00;76.50;;;;;;6858759;28;20435;-80
2022/07/06 09:54:25;;;;;;;8.82;4.80;;;22.10;77.10;;;;;;6859300;28;20907;-80
2022/07/06 09:57:55;;;;;;;7.27;2.87;;;22.20;76.10;;;;;;6858841;28;20444;-80
2022/07/06 10:01:29;;;;;;;6.30;2.57;;;22.20;74.30;;;;;;6858397;28;20427;-78
2022/07/06 10:04:53;;;;;;;7.70;2.80;;;22.10;75.80;;;;;;6858591;28;20436;-76
2022/07/06 10:08:18;;;;;;;5.78;2.95;;;22.20;73.80;;;;;;6858908;28;20428;-78
2022/07/06 10:11:43;;;;;;;8.52;2.90;;;22.30;74.70;;;;;;6885472;28;21160;-79
2022/07/06 10:15:07;;;;;;;6.32;2.50;;;22.30;74.10;;;;;;6885559;28;20454;-76
2022/07/06 10:18:29;;;;;;;9.13;2.95;;;22.30;76.40;;;;;;6866590;28;20915;-78
2022/07/06 10:21:53;;;;;;;8.75;3.10;;;22.40;74.70;;;;;;6858019;28;20926;-79
2022/07/06 10:25:17;;;;;;;6.63;2.47;;;22.40;73.70;;;;;;6861746;28;20478;-77
2022/07/06 10:28:39;;;;;;;7.50;2.65;;;22.50;75.00;;;;;;6885056;28;20466;-79
2022/07/06 10:32:03;;;;;;;7.35;2.60;;;22.60;73.40;;;;;;6867933;28;20438;-79
2022/07/06 10:35:25;;;;;;;7.70;2.78;;;22.70;72.50;;;;;;6887466;28;20893;-79
2022/07/06 10:38:51;;;;;;;6.97;2.70;;;22.90;72.90;;;;;;6890380;28;20562;-79
2022/07/06 10:42:43;;;;;;;8.00;2.35;;;23.10;73.00;;;;;;6867427;28;20930;-74
2022/07/06 10:46:10;;;;;;;7.20;2.43;;;23.00;72.40;;;;;;6864413;28;20443;-75
2022/07/06 10:49:32;;;;;;;6.57;2.40;;;23.00;71.40;;;;;;6875294;28;20440;-78
2022/07/06 10:52:59;;;;;;;6.22;2.40;;;22.90;70.40;;;;;;6862144;28;20471;-77
2022/07/06 10:56:33;;;;;;;5.45;2.10;;;22.90;70.40;;;;;;6836868;29;20444;-77
2022/07/06 11:00:02;;;;;;;5.43;2.58;;;22.90;72.00;;;;;;6836367;28;20493;-78
2022/07/06 11:03:40;;;;;;;6.28;2.42;;;23.10;70.80;;;;;;6836416;28;20452;-78
2022/07/06 11:07:10;;;;;;;5.68;2.50;;;23.10;71.20;;;;;;6850694;28;20478;-76
2022/07/06 11:10:48;;;;;;;6.43;2.45;;;23.10;71.30;;;;;;6862762;28;20940;-78
2022/07/06 11:14:14;;;;;;;6.45;2.40;;;23.20;70.20;;;;;;6869055;28;20914;-77
2022/07/06 11:17:36;;;;;;;7.22;2.58;;;23.20;71.80;;;;;;6863044;28;20849;-80
2022/07/06 11:21:22;;;;;;;5.78;2.38;;;23.30;71.60;;;;;;6861947;28;20881;-77
2022/07/06 11:24:45;;;;;;;3.80;2.00;;;23.40;70.80;;;;;;6863145;28;20436;-78
2022/07/06 11:28:08;;;;;;;6.65;2.22;;;23.40;72.70;;;;;;6862840;28;20435;-79
2022/07/06 11:31:31;;;;;;;6.32;2.35;;;23.50;72.00;;;;;;6862535;28;20790;-80
2022/07/06 11:34:54;;;;;;;4.93;2.30;;;23.60;71.90;;;;;;6861388;28;20541;-77
2022/07/06 11:38:31;;;;;;;5.83;2.30;;;23.80;71.70;;;;;;6861799;28;20944;-78
2022/07/06 11:41:53;;;;;;;6.68;2.30;;;23.90;69.60;;;;;;6888420;28;20931;-77
2022/07/06 11:45:27;;;;;;;6.75;2.17;;;23.80;70.80;;;;;;6868175;28;20468;-78
2022/07/06 11:48:52;;;;;;;5.47;2.10;;;24.00;71.00;;;;;;6889622;28;21012;-76
2022/07/06 11:52:15;;;;;;;5.95;2.30;;;24.20;69.90;;;;;;6864960;28;20518;-78
2022/07/06 11:55:37;;;;;;;5.82;2.08;;;24.20;67.00;;;;;;6862087;28;20445;-78
2022/07/06 11:59:00;;;;;;;4.05;1.90;;;24.30;69.20;;;;;;6862110;28;20490;-77
2022/07/06 12:02:22;;;;;;;7.20;2.23;;;24.40;69.10;;;;;;6861743;28;20435;-79
2022/07/06 12:05:46;;;;;;;6.70;2.10;;;24.40;67.50;;;;;;6861005;28;20436;-78
2022/07/06 12:09:08;;;;;;;5.00;1.90;;;24.50;67.00;;;;;;6861589;28;20480;-79
2022/07/06 12:12:30;;;;;;;5.10;2.33;;;24.60;67.90;;;;;;6860871;28;20436;-79
2022/07/06 12:15:52;;;;;;;6.70;2.20;;;24.70;66.00;;;;;;6862159;28;20436;-80
2022/07/06 12:19:15;;;;;;;5.85;2.05;;;24.70;66.10;;;;;;6860517;28;21198;-79
2022/07/06 12:22:38;;;;;;;5.45;2.15;;;24.50;68.00;;;;;;6861079;28;20478;-78
2022/07/06 12:26:00;;;;;;;5.93;2.08;;;24.80;69.30;;;;;;6861121;28;20562;-79
2022/07/06 12:29:23;;;;;;;6.13;2.03;;;25.00;67.40;;;;;;6859873;28;20477;-79
2022/07/06 12:32:45;;;;;;;5.43;2.13;;;25.00;66.10;;;;;;6860444;28;20435;-80
2022/07/06 12:36:15;;;;;;;5.40;1.90;;;24.70;65.50;;;;;;6859975;28;20475;-79
2022/07/06 12:39:45;;;;;;;6.72;2.30;;;24.80;67.20;;;;;;6860245;28;20444;-79
2022/07/06 12:43:07;;;;;;;6.95;2.20;;;24.70;68.10;;;;;;6860923;28;20474;-78
2022/07/06 12:46:31;;;;;;;6.50;2.33;;;24.90;68.60;;;;;;6860406;28;20435;-79
2022/07/06 12:50:08;;;;;;;6.20;2.30;;;25.10;66.80;;;;;;6886013;28;20434;-79
2022/07/06 12:53:30;;;;;;;8.07;2.37;;;25.30;66.80;;;;;;6859382;28;20539;-79
2022/07/06 12:57:09;;;;;;;6.50;2.35;;;25.40;65.60;;;;;;6861044;28;20440;-78
2022/07/06 13:00:46;;;;;;;6.32;2.30;;;25.40;67.30;;;;;;6860779;28;20926;-78
2022/07/06 13:04:09;;;;;;;7.50;2.58;;;25.70;66.00;;;;;;6875936;28;20443;-77
2022/07/06 13:07:35;;;;;;;7.28;2.55;;;25.80;64.60;;;;;;6862501;28;20468;-79
2022/07/06 13:10:57;;;;;;;6.47;2.13;;;25.90;64.40;;;;;;6887941;28;20441;-79
2022/07/06 13:14:20;;;;;;;6.70;2.27;;;26.10;66.50;;;;;;6887057;28;20438;-78
2022/07/06 13:17:43;;;;;;;5.80;2.28;;;25.80;64.20;;;;;;6885683;28;20437;-78
2022/07/06 13:21:05;;;;;;;7.05;2.40;;;25.50;65.50;;;;;;6868489;28;20442;-78
2022/07/06 13:24:28;;;;;;;4.45;2.30;;;25.60;65.20;;;;;;6882446;28;20434;-77
2022/07/06 13:27:51;;;;;;;5.40;2.27;;;25.70;65.60;;;;;;6866622;28;20484;-79
2022/07/06 13:31:14;;;;;;;5.45;2.25;;;26.00;66.20;;;;;;6879738;28;20440;-77
2022/07/06 13:34:36;;;;;;;6.28;2.50;;;26.30;65.10;;;;;;6859124;28;20918;-77
2022/07/06 13:37:58;;;;;;;6.55;2.10;;;26.40;64.10;;;;;;6868838;28;20446;-78
2022/07/06 13:41:20;;;;;;;5.72;2.38;;;26.30;64.50;;;;;;6882255;28;20455;-78
2022/07/06 13:44:42;;;;;;;6.18;2.50;;;26.40;65.20;;;;;;6857909;28;20440;-78
2022/07/06 13:48:07;;;;;;;8.93;2.40;;;26.40;62.90;;;;;;6875610;28;20962;-78
2022/07/06 13:51:29;;;;;;;6.95;2.40;;;26.10;62.80;;;;;;6867615;28;20481;-78
2022/07/06 13:54:51;;;;;;;6.40;2.20;;;26.20;64.10;;;;;;6857951;28;20490;-78
2022/07/06 13:58:13;;;;;;;6.80;3.25;;;26.40;63.10;;;;;;6858013;28;20952;-79
2022/07/06 14:01:35;;;;;;;10.15;3.40;;;26.40;63.10;;;;;;6885012;28;20935;-79
2022/07/06 14:04:59;;;;;;;6.20;2.67;;;26.30;63.20;;;;;;6870824;28;20471;-78
2022/07/06 14:08:21;;;;;;;5.15;2.60;;;26.40;63.30;;;;;;6854671;28;20436;-78
2022/07/06 14:11:43;;;;;;;6.07;2.17;;;26.70;62.30;;;;;;6860776;28;20544;-79
2022/07/06 14:15:07;;;;;;;6.13;2.13;;;26.70;64.10;;;;;;6862982;28;20467;-78
2022/07/06 14:18:29;;;;;;;6.78;2.13;;;27.00;61.20;;;;;;6837563;28;20916;-78
2022/07/06 14:21:53;;;;;;;6.43;2.10;;;27.10;61.30;;;;;;6834258;28;20477;-79
2022/07/06 14:25:15;;;;;;;5.63;2.00;;;27.00;60.20;;;;;;6851497;28;20496;-79
2022/07/06 14:28:37;;;;;;;5.95;2.10;;;27.30;61.90;;;;;;6859319;28;20451;-77
2022/07/06 14:31:59;;;;;;;6.25;2.08;;;27.50;59.20;;;;;;6861859;28;20447;-78
2022/07/06 14:35:22;;;;;;;5.63;2.33;;;27.10;59.90;;;;;;6863875;28;20954;-77
2022/07/06 14:38:45;;;;;;;5.47;2.10;;;27.00;59.10;;;;;;6860021;28;20442;-79
2022/07/06 14:42:08;;;;;;;5.53;2.17;;;26.90;59.50;;;;;;6861555;28;20439;-78
2022/07/06 14:45:31;;;;;;;7.05;2.03;;;26.70;60.20;;;;;;6860432;28;20448;-76
2022/07/06 14:48:53;;;;;;;5.40;2.00;;;26.60;59.50;;;;;;6855172;28;20973;-78
2022/07/06 14:52:15;;;;;;;5.90;2.30;;;26.40;60.00;;;;;;6864651;28;20478;-78
2022/07/06 14:55:39;;;;;;;5.60;2.20;;;26.30;60.00;;;;;;6867767;28;20480;-78
2022/07/06 14:59:01;;;;;;;7.53;1.90;;;26.20;59.80;;;;;;6881148;28;20540;-78
2022/07/06 15:02:23;;;;;;;5.97;1.88;;;26.40;60.20;;;;;;6887136;28;20935;-76
2022/07/06 15:05:47;;;;;;;5.93;1.98;;;26.50;60.60;;;;;;6859390;28;20444;-79
2022/07/06 15:09:09;;;;;;;7.63;2.15;;;26.40;60.80;;;;;;6858729;28;20451;-79
2022/07/06 15:12:33;;;;;;;5.70;1.90;;;26.50;59.90;;;;;;6859638;28;20461;-79
2022/07/06 15:15:55;;;;;;;5.40;1.93;;;26.80;60.20;;;;;;6860626;28;20452;-78
2022/07/06 15:19:17;;;;;;;5.72;1.90;;;27.00;59.50;;;;;;6858355;28;20443;-78
2022/07/06 15:22:39;;;;;;;5.07;1.90;;;26.90;58.90;;;;;;6855621;28;20463;-77
2022/07/06 15:26:03;;;;;;;5.88;1.80;;;26.70;59.00;;;;;;6855426;28;20449;-78
2022/07/06 15:29:27;;;;;;;6.20;1.80;;;26.40;58.80;;;;;;6859556;28;20450;-78
2022/07/06 15:32:49;;;;;;;4.15;1.83;;;26.30;60.30;;;;;;6857439;28;20491;-76
2022/07/06 15:36:11;;;;;;;4.45;1.60;;;26.70;59.00;;;;;;6855697;28;20485;-78
2022/07/06 15:39:33;;;;;;;4.70;1.80;;;26.90;59.70;;;;;;6857676;28;20493;-79
2022/07/06 15:42:55;;;;;;;5.45;1.63;;;27.00;58.10;;;;;;6858767;28;20471;-79
2022/07/06 15:46:19;;;;;;;5.00;1.70;;;27.00;56.90;;;;;;6855730;28;20439;-79
2022/07/06 15:49:41;;;;;;;6.00;1.70;;;27.20;58.50;;;;;;6856575;28;21177;-77
2022/07/06 15:53:04;;;;;;;4.82;1.63;;;27.00;57.90;;;;;;6854021;28;20483;-79
2022/07/06 15:56:26;;;;;;;5.68;1.58;;;27.70;55.80;;;;;;6873839;28;20560;-79
2022/07/06 15:59:48;;;;;;;4.97;1.50;;;28.10;55.90;;;;;;6858017;28;20450;-78
2022/07/06 16:03:11;;;;;;;5.35;1.65;;;28.10;55.50;;;;;;6857683;28;20482;-77
2022/07/06 16:06:33;;;;;;;3.70;1.70;;;28.00;56.00;;;;;;6850360;28;20442;-80
2022/07/06 16:09:56;;;;;;;4.33;1.60;;;28.00;55.10;;;;;;6859036;28;20573;-78
2022/07/06 16:13:19;;;;;;;4.30;1.60;;;28.10;54.20;;;;;;6859605;28;20468;-78
2022/07/06 16:16:42;;;;;;;4.85;1.50;;;27.30;56.20;;;;;;6851536;28;20622;-78
2022/07/06 16:20:08;;;;;;;5.38;1.70;;;27.40;57.00;;;;;;6856417;28;20470;-77
2022/07/06 16:23:30;;;;;;;5.95;1.60;;;27.00;55.60;;;;;;6859220;28;20448;-78
2022/07/06 16:26:52;;;;;;;6.15;1.65;;;27.30;55.70;;;;;;6856008;28;20479;-79
2022/07/06 16:30:15;;;;;;;5.60;1.55;;;27.20;54.90;;;;;;6858518;28;20438;-77
2022/07/06 16:33:37;;;;;;;7.37;1.60;;;27.30;54.40;;;;;;6856559;28;20440;-78
2022/07/06 16:37:01;;;;;;;3.80;1.42;;;27.70;55.50;;;;;;6856592;28;20934;-78
2022/07/06 16:40:23;;;;;;;4.95;1.63;;;27.70;54.00;;;;;;6855860;28;20480;-78
2022/07/06 16:43:47;;;;;;;5.90;1.50;;;27.60;53.80;;;;;;6858001;28;20634;-76
2022/07/06 16:47:09;;;;;;;6.32;1.80;;;27.40;54.60;;;;;;6880907;28;20443;-77
2022/07/06 16:50:31;;;;;;;4.70;1.40;;;27.10;55.00;;;;;;6873857;28;20520;-80
2022/07/06 16:53:54;;;;;;;4.85;1.40;;;26.90;54.40;;;;;;6857972;28;20831;-78
2022/07/06 16:57:16;;;;;;;5.68;1.40;;;26.40;54.70;;;;;;6853067;28;20451;-79
2022/07/06 17:00:38;;;;;;;4.40;1.52;;;26.30;54.90;;;;;;6853568;28;20456;-79
2022/07/06 17:04:00;;;;;;;6.30;1.40;;;26.00;54.90;;;;;;6858597;28;20446;-80
2022/07/06 17:07:22;;;;;;;3.80;1.45;;;26.00;55.00;;;;;;6856795;28;20482;-79
2022/07/06 17:10:46;;;;;;;3.47;1.40;;;25.90;55.00;;;;;;6853645;28;20440;-79
2022/07/06 17:14:09;;;;;;;4.63;1.30;;;25.90;55.10;;;;;;6843011;28;20496;-79
2022/07/06 17:17:31;;;;;;;3.53;1.30;;;25.80;55.50;;;;;;6854040;28;20487;-81
2022/07/06 17:20:53;;;;;;;5.30;1.67;;;25.80;55.30;;;;;;6872881;28;21000;-79
2022/07/06 17:24:15;;;;;;;6.00;2.45;;;25.50;55.50;;;;;;6843766;28;20482;-79
2022/07/06 17:27:38;;;;;;;5.93;1.90;;;25.40;56.60;;;;;;6851432;28;20970;-78
2022/07/06 17:31:00;;;;;;;4.95;2.17;;;25.30;55.30;;;;;;6853308;28;20452;-78
2022/07/06 17:34:22;;;;;;;6.30;1.55;;;25.10;56.30;;;;;;6855198;28;20472;-77
2022/07/06 17:37:45;;;;;;;3.50;1.40;;;25.00;56.20;;;;;;6852245;28;20474;-79
2022/07/06 17:41:07;;;;;;;4.82;1.50;;;24.80;56.00;;;;;;6854761;28;20443;-79
2022/07/06 17:44:31;;;;;;;4.57;1.45;;;24.80;55.70;;;;;;6853030;28;20532;-80
2022/07/06 17:47:53;;;;;;;5.17;1.33;;;24.60;56.30;;;;;;6871747;28;20479;-78